createdAt,value
2017-11-01T00:01:11.471Z,8.20
2017-11-01T00:03:38.079Z,6.70
2017-11-01T00:06:04.730Z,8.77
2017-11-01T00:08:31.350Z,8.43
2017-11-01T00:10:57.975Z,6.50
2017-11-01T00:13:24.627Z,7.43
2017-11-01T00:15:51.300Z,6.90
2017-11-01T00:18:17.965Z,8.67
2017-11-01T00:20:44.593Z,10.33
2017-11-01T00:23:11.238Z,7.60
2017-11-01T00:25:37.866Z,6.67
2017-11-01T00:28:04.475Z,8.90
2017-11-01T00:30:31.109Z,7.80
2017-11-01T00:32:57.718Z,8.20
2017-11-01T00:35:24.384Z,7.60
2017-11-01T00:37:51.014Z,7.80
2017-11-01T00:40:17.665Z,7.60
2017-11-01T00:42:44.299Z,7.53
2017-11-01T00:45:10.943Z,7.60
2017-11-01T00:47:37.596Z,7.03
2017-11-01T00:50:04.230Z,10.70
2017-11-01T00:52:30.872Z,10.27
2017-11-01T00:54:57.492Z,7.67
2017-11-01T00:57:24.111Z,11.17
2017-11-01T00:59:50.747Z,8.23
2017-11-01T01:02:17.362Z,8.23
2017-11-01T01:04:43.998Z,8.03
2017-11-01T01:07:10.624Z,8.17
2017-11-01T01:09:37.262Z,7.30
2017-11-01T01:12:03.904Z,8.47
2017-11-01T01:14:30.516Z,9.30
2017-11-01T01:16:57.159Z,8.07
2017-11-01T01:19:23.782Z,6.50
2017-11-01T01:21:50.418Z,6.27
2017-11-01T01:24:17.048Z,8.23
2017-11-01T01:26:43.677Z,8.50
2017-11-01T01:29:10.301Z,6.80
2017-11-01T01:31:36.915Z,8.30
2017-11-01T01:34:03.538Z,7.33
2017-11-01T01:36:30.191Z,8.03
2017-11-01T01:38:56.811Z,7.83
2017-11-01T01:41:23.450Z,8.27
2017-11-01T01:43:50.067Z,6.93
2017-11-01T01:46:16.711Z,6.83
2017-11-01T01:48:43.318Z,7.40
2017-11-01T01:51:09.946Z,6.87
2017-11-01T01:53:36.614Z,7.33
2017-11-01T01:56:03.230Z,7.83
2017-11-01T01:58:29.870Z,7.27
2017-11-01T02:00:56.503Z,7.20
2017-11-01T02:03:23.172Z,8.60
2017-11-01T02:05:49.799Z,8.00
2017-11-01T02:08:16.437Z,7.20
2017-11-01T02:10:43.054Z,8.60
2017-11-01T02:13:09.702Z,7.60
2017-11-01T02:15:36.314Z,7.40
2017-11-01T02:18:02.959Z,6.23
2017-11-01T02:20:29.587Z,7.10
2017-11-01T02:22:56.202Z,7.73
2017-11-01T02:25:22.838Z,7.87
2017-11-01T02:27:49.475Z,6.73
2017-11-01T02:30:16.096Z,7.93
2017-11-01T02:32:42.739Z,7.50
2017-11-01T02:35:09.344Z,8.00
2017-11-01T02:37:35.999Z,6.67
2017-11-01T02:40:02.623Z,7.33
2017-11-01T02:42:29.261Z,9.23
2017-11-01T02:44:55.891Z,8.23
2017-11-01T02:47:22.510Z,7.13
2017-11-01T02:49:49.468Z,8.30
2017-11-01T02:52:16.104Z,8.13
2017-11-01T02:54:42.740Z,7.80
2017-11-01T02:57:09.352Z,7.60
2017-11-01T02:59:37.727Z,7.20
2017-11-01T03:02:04.366Z,8.13
2017-11-01T03:04:30.986Z,7.83
2017-11-01T03:06:59.340Z,8.07
2017-11-01T03:09:26.705Z,8.97
2017-11-01T03:11:53.322Z,9.20
2017-11-01T03:14:19.958Z,7.40
2017-11-01T03:16:46.596Z,8.50
2017-11-01T03:19:13.226Z,8.20
2017-11-01T03:21:39.866Z,7.93
2017-11-01T03:24:06.518Z,10.60
2017-11-01T03:26:33.124Z,7.27
2017-11-01T03:28:59.763Z,8.70
2017-11-01T03:31:26.364Z,9.47
2017-11-01T03:33:52.994Z,8.77
2017-11-01T03:36:19.663Z,8.20
2017-11-01T03:38:46.276Z,10.03
2017-11-01T03:41:12.915Z,9.70
2017-11-01T03:43:39.578Z,11.23
2017-11-01T03:46:06.194Z,10.50
2017-11-01T03:48:33.171Z,10.17
2017-11-01T03:50:59.818Z,10.47
2017-11-01T03:53:26.468Z,10.43
2017-11-01T03:55:53.094Z,11.00
2017-11-01T03:58:19.723Z,9.60
2017-11-01T04:00:46.343Z,9.07
2017-11-01T04:03:12.963Z,10.50
2017-11-01T04:05:39.629Z,11.00
2017-11-01T04:08:06.298Z,11.50
2017-11-01T04:10:32.939Z,10.77
2017-11-01T04:12:59.597Z,11.67
2017-11-01T04:15:26.234Z,12.00
2017-11-01T04:17:52.858Z,12.03
2017-11-01T04:20:19.487Z,11.57
2017-11-01T04:22:46.106Z,11.33
2017-11-01T04:25:12.758Z,12.00
2017-11-01T04:27:39.426Z,11.37
2017-11-01T04:30:06.074Z,11.47
2017-11-01T04:32:32.712Z,11.07
2017-11-01T04:34:59.350Z,12.77
2017-11-01T04:37:25.976Z,12.30
2017-11-01T04:39:52.695Z,12.57
2017-11-01T04:42:19.336Z,10.97
2017-11-01T04:44:45.958Z,11.07
2017-11-01T04:47:12.601Z,11.33
2017-11-01T04:49:39.235Z,12.03
2017-11-01T04:52:07.860Z,13.00
2017-11-01T04:54:34.579Z,13.10
2017-11-01T04:57:03.963Z,12.50
2017-11-01T04:59:30.582Z,14.93
2017-11-01T05:01:57.255Z,15.70
2017-11-01T05:04:23.890Z,13.73
2017-11-01T05:06:50.526Z,14.03
2017-11-01T05:09:17.154Z,13.70
2017-11-01T05:11:43.794Z,13.20
2017-11-01T05:14:16.430Z,12.70
2017-11-01T05:16:43.858Z,11.50
2017-11-01T05:19:10.483Z,13.10
2017-11-01T05:21:38.029Z,12.80
2017-11-01T05:24:04.677Z,11.87
2017-11-01T05:26:31.326Z,11.97
2017-11-01T05:28:57.992Z,13.47
2017-11-01T05:31:24.677Z,11.87
2017-11-01T05:33:51.302Z,11.60
2017-11-01T05:36:17.926Z,11.93
2017-11-01T05:38:44.606Z,12.40
2017-11-01T05:41:11.257Z,13.37
2017-11-01T05:43:37.878Z,13.90
2017-11-01T05:46:04.507Z,11.53
2017-11-01T05:48:31.151Z,13.00
2017-11-01T05:50:57.784Z,12.67
2017-11-01T05:53:24.422Z,13.87
2017-11-01T05:55:51.041Z,12.67
2017-11-01T05:58:17.680Z,12.90
2017-11-01T06:00:44.306Z,13.17
2017-11-01T06:03:10.911Z,13.00
2017-11-01T06:05:37.556Z,13.47
2017-11-01T06:08:04.162Z,12.50
2017-11-01T06:10:30.786Z,11.67
2017-11-01T06:12:57.439Z,12.80
2017-11-01T06:15:24.059Z,13.07
2017-11-01T06:17:50.694Z,15.07
2017-11-01T06:20:17.314Z,12.77
2017-11-01T06:22:43.950Z,12.10
2017-11-01T06:25:10.579Z,12.33
2017-11-01T06:27:37.206Z,14.87
2017-11-01T06:30:03.846Z,12.53
2017-11-01T06:32:30.477Z,12.20
2017-11-01T06:34:57.110Z,12.07
2017-11-01T06:37:23.743Z,12.70
2017-11-01T06:39:50.389Z,13.03
2017-11-01T06:42:17.035Z,13.23
2017-11-01T06:44:43.651Z,13.07
2017-11-01T06:47:10.289Z,12.27
2017-11-01T06:49:36.911Z,13.33
2017-11-01T06:52:03.536Z,12.13
2017-11-01T06:54:30.150Z,12.60
2017-11-01T06:56:56.786Z,12.60
2017-11-01T06:59:23.417Z,14.33
2017-11-01T07:04:22.253Z,14.40
2017-11-01T07:06:48.887Z,12.30
2017-11-01T07:09:15.531Z,13.13
2017-11-01T07:11:42.160Z,15.47
2017-11-01T07:14:08.808Z,14.30
2017-11-01T07:16:35.472Z,14.63
2017-11-01T07:19:02.057Z,13.60
2017-11-01T07:21:28.703Z,15.90
2017-11-01T07:23:55.331Z,16.07
2017-11-01T07:26:21.961Z,14.80
2017-11-01T07:28:48.601Z,15.20
2017-11-01T07:31:15.258Z,15.00
2017-11-01T07:33:41.865Z,14.53
2017-11-01T07:36:08.515Z,17.53
2017-11-01T07:38:35.171Z,15.17
2017-11-01T07:41:01.808Z,16.17
2017-11-01T07:43:28.411Z,15.37
2017-11-01T07:45:55.059Z,17.70
2017-11-01T07:48:21.694Z,17.73
2017-11-01T07:50:48.312Z,16.80
2017-11-01T07:53:14.931Z,16.40
2017-11-01T07:55:41.579Z,17.20
2017-11-01T07:58:08.219Z,17.33
2017-11-01T08:00:34.830Z,15.53
2017-11-01T08:03:01.470Z,15.90
2017-11-01T08:05:28.102Z,17.20
2017-11-01T08:07:54.758Z,16.13
2017-11-01T08:10:21.415Z,18.60
2017-11-01T08:12:48.077Z,17.40
2017-11-01T08:15:14.683Z,17.50
2017-11-01T08:17:41.322Z,18.00
2017-11-01T08:20:07.956Z,17.13
2017-11-01T08:22:34.577Z,17.73
2017-11-01T08:25:01.231Z,17.40
2017-11-01T08:27:27.881Z,16.10
2017-11-01T08:29:54.518Z,18.50
2017-11-01T08:32:21.138Z,17.70
2017-11-01T08:34:47.773Z,16.77
2017-11-01T08:37:14.425Z,17.13
2017-11-01T08:39:41.066Z,16.20
2017-11-01T08:42:07.696Z,16.40
2017-11-01T08:44:34.352Z,17.30
2017-11-01T08:47:00.988Z,18.10
2017-11-01T08:49:27.789Z,18.50
2017-11-01T08:51:54.428Z,19.27
2017-11-01T08:54:21.082Z,17.27
2017-11-01T08:56:47.732Z,18.20
2017-11-01T08:59:15.109Z,17.70
2017-11-01T09:01:41.734Z,16.80
2017-11-01T09:04:08.368Z,17.97
2017-11-01T09:06:35.015Z,17.33
2017-11-01T09:09:01.667Z,15.50
2017-11-01T09:11:28.306Z,16.70
2017-11-01T09:13:54.949Z,16.40
2017-11-01T09:16:21.591Z,18.07
2017-11-01T09:18:48.239Z,15.47
2017-11-01T09:21:14.866Z,15.70
2017-11-01T09:23:41.511Z,19.80
2017-11-01T09:26:08.146Z,17.90
2017-11-01T09:28:34.780Z,15.27
2017-11-01T09:31:01.774Z,17.07
2017-11-01T09:33:28.411Z,15.37
2017-11-01T09:35:55.035Z,15.70
2017-11-01T09:38:21.663Z,17.17
2017-11-01T09:40:48.328Z,17.80
2017-11-01T09:43:14.988Z,17.73
2017-11-01T09:45:41.808Z,16.53
2017-11-01T09:48:08.450Z,15.67
2017-11-01T09:50:35.081Z,15.87
2017-11-01T09:53:01.748Z,18.73
2017-11-01T09:55:28.355Z,13.60
2017-11-01T09:57:54.987Z,16.13
2017-11-01T10:00:21.668Z,14.60
2017-11-01T10:02:48.319Z,16.27
2017-11-01T10:05:14.963Z,17.87
2017-11-01T10:07:41.599Z,16.37
2017-11-01T10:10:08.280Z,14.93
2017-11-01T10:12:35.948Z,15.60
2017-11-01T10:15:02.653Z,14.27
2017-11-01T10:17:29.509Z,14.20
2017-11-01T10:19:56.272Z,15.50
2017-11-01T10:22:22.956Z,14.43
2017-11-01T10:24:49.587Z,14.40
2017-11-01T10:27:16.240Z,14.80
2017-11-01T10:29:42.993Z,16.10
2017-11-01T10:32:09.630Z,13.80
2017-11-01T10:34:36.290Z,15.43
2017-11-01T10:37:02.956Z,17.60
2017-11-01T10:39:30.399Z,14.27
2017-11-01T10:41:57.055Z,15.37
2017-11-01T10:44:23.676Z,14.00
2017-11-01T10:46:50.323Z,15.60
2017-11-01T10:49:16.951Z,14.30
2017-11-01T10:51:43.594Z,15.07
2017-11-01T10:54:10.240Z,13.90
2017-11-01T10:56:36.872Z,16.17
2017-11-01T10:59:03.494Z,15.73
2017-11-01T11:01:30.148Z,15.37
2017-11-01T11:03:56.809Z,15.87
2017-11-01T11:06:24.461Z,15.07
2017-11-01T11:08:51.100Z,14.73
2017-11-01T11:11:17.740Z,13.13
2017-11-01T11:13:44.375Z,12.60
2017-11-01T11:16:11.024Z,15.50
2017-11-01T11:18:37.641Z,12.93
2017-11-01T11:21:04.296Z,14.77
2017-11-01T11:23:30.938Z,15.10
2017-11-01T11:25:58.066Z,13.20
2017-11-01T11:28:24.731Z,13.87
2017-11-01T11:30:51.362Z,12.87
2017-11-01T11:33:17.983Z,11.37
2017-11-01T11:35:44.681Z,12.80
2017-11-01T11:38:11.317Z,11.93
2017-11-01T11:40:37.983Z,12.70
2017-11-01T11:43:04.604Z,12.67
2017-11-01T11:45:31.241Z,12.70
2017-11-01T11:47:57.882Z,13.97
2017-11-01T11:50:24.518Z,11.47
2017-11-01T11:52:51.188Z,13.53
2017-11-01T11:55:17.818Z,11.27
2017-11-01T11:57:44.468Z,10.80
2017-11-01T12:00:11.107Z,12.00
2017-11-01T12:02:37.723Z,11.10
2017-11-01T12:05:04.341Z,10.20
2017-11-01T12:07:30.991Z,11.90
2017-11-01T12:09:57.644Z,12.97
2017-11-01T12:12:24.282Z,11.90
2017-11-01T12:14:50.967Z,12.63
2017-11-01T12:17:17.597Z,13.23
2017-11-01T12:19:44.218Z,13.73
2017-11-01T12:22:10.875Z,13.43
2017-11-01T12:24:37.494Z,12.20
2017-11-01T12:27:04.126Z,12.97
2017-11-01T12:29:30.799Z,12.57
2017-11-01T12:31:57.502Z,12.90
2017-11-01T12:34:24.126Z,14.50
2017-11-01T12:36:50.784Z,12.50
2017-11-01T12:39:17.461Z,12.10
2017-11-01T12:41:44.087Z,12.90
2017-11-01T12:44:10.719Z,11.00
2017-11-01T12:46:37.374Z,11.37
2017-11-01T12:49:04.011Z,11.50
2017-11-01T12:51:30.670Z,12.77
2017-11-01T12:53:57.283Z,11.73
2017-11-01T12:56:23.914Z,10.20
2017-11-01T12:58:50.563Z,13.00
2017-11-01T13:01:17.179Z,11.50
2017-11-01T13:03:43.816Z,14.77
2017-11-01T13:06:10.477Z,11.37
2017-11-01T13:08:37.104Z,10.67
2017-11-01T13:11:03.761Z,12.03
2017-11-01T13:13:30.402Z,10.40
2017-11-01T13:15:57.016Z,12.13
2017-11-01T13:18:23.651Z,10.90
2017-11-01T13:20:50.275Z,9.87
2017-11-01T13:23:16.903Z,10.37
2017-11-01T13:25:43.531Z,11.20
2017-11-01T13:28:10.194Z,9.50
2017-11-01T13:30:36.826Z,11.37
2017-11-01T13:33:03.467Z,9.97
2017-11-01T13:35:30.102Z,8.50
2017-11-01T13:37:56.749Z,10.40
2017-11-01T13:40:23.358Z,9.67
2017-11-01T13:42:49.987Z,7.80
2017-11-01T13:45:16.635Z,9.17
2017-11-01T13:47:43.270Z,9.70
2017-11-01T13:50:09.907Z,8.23
2017-11-01T13:52:36.532Z,10.03
2017-11-01T13:55:03.181Z,9.13
2017-11-01T13:57:29.811Z,8.80
2017-11-01T13:59:56.450Z,8.37
2017-11-01T14:02:23.065Z,8.03
2017-11-01T14:04:49.697Z,8.53
2017-11-01T14:07:16.320Z,8.83
2017-11-01T14:09:42.954Z,8.87
2017-11-01T14:12:09.597Z,8.23
2017-11-01T14:14:36.216Z,8.33
2017-11-01T14:17:02.855Z,9.07
2017-11-01T14:19:29.472Z,9.40
2017-11-01T14:21:56.131Z,9.20
2017-11-01T14:24:22.759Z,8.47
2017-11-01T14:26:49.370Z,8.83
2017-11-01T14:29:15.996Z,9.40
2017-11-01T14:31:42.627Z,7.70
2017-11-01T14:34:09.260Z,7.47
2017-11-01T14:36:35.877Z,9.00
2017-11-01T14:39:02.608Z,8.10
2017-11-01T14:41:29.239Z,8.17
2017-11-01T14:43:55.855Z,7.37
2017-11-01T14:46:22.494Z,9.73
2017-11-01T14:48:49.151Z,8.20
2017-11-01T14:51:15.759Z,8.40
2017-11-01T14:53:42.400Z,6.67
2017-11-01T14:56:09.054Z,7.00
2017-11-01T14:58:35.690Z,7.70
2017-11-01T15:01:02.311Z,6.70
2017-11-01T15:03:29.011Z,6.40
2017-11-01T15:05:55.659Z,7.07
2017-11-01T15:08:22.271Z,5.50
2017-11-01T15:10:48.921Z,6.23
2017-11-01T15:13:15.579Z,6.40
2017-11-01T15:15:42.226Z,6.53
2017-11-01T15:18:08.856Z,5.73
2017-11-01T15:20:35.471Z,5.77
2017-11-01T15:23:02.140Z,5.20
2017-11-01T15:25:28.769Z,6.23
2017-11-01T15:27:55.404Z,5.30
2017-11-01T15:30:22.047Z,5.30
2017-11-01T15:32:48.671Z,4.87
2017-11-01T15:35:15.278Z,4.93
2017-11-01T15:37:41.919Z,4.97
2017-11-01T15:40:08.527Z,5.00
2017-11-01T15:42:35.163Z,5.20
2017-11-01T15:45:01.807Z,6.27
2017-11-01T15:47:28.420Z,6.37
2017-11-01T15:49:55.049Z,4.60
2017-11-01T15:52:21.686Z,5.13
2017-11-01T15:54:48.370Z,4.60
2017-11-01T15:57:14.990Z,7.03
2017-11-01T15:59:41.605Z,4.37
2017-11-01T16:02:08.258Z,4.60
2017-11-01T16:04:34.907Z,5.60
2017-11-01T16:07:01.522Z,4.33
2017-11-01T16:09:28.164Z,5.03
2017-11-01T16:11:54.819Z,4.67
2017-11-01T16:14:21.435Z,4.50
2017-11-01T16:16:48.090Z,5.23
2017-11-01T16:19:14.701Z,4.13
2017-11-01T16:21:41.312Z,5.47
2017-11-01T16:24:07.932Z,4.87
2017-11-01T16:26:34.587Z,4.60
2017-11-01T16:29:01.224Z,4.63
2017-11-01T16:31:27.853Z,5.97
2017-11-01T16:33:54.482Z,5.50
2017-11-01T16:36:21.100Z,5.07
2017-11-01T16:38:47.734Z,4.43
2017-11-01T16:41:14.395Z,4.73
2017-11-01T16:43:41.021Z,4.90
2017-11-01T16:46:07.662Z,4.20
2017-11-01T16:48:34.946Z,4.10
2017-11-01T16:51:01.567Z,5.70
2017-11-01T16:53:28.220Z,6.20
2017-11-01T16:55:54.894Z,5.53
2017-11-01T16:58:21.527Z,5.00
2017-11-01T17:00:48.237Z,5.23
2017-11-01T17:03:14.863Z,4.77
2017-11-01T17:05:41.491Z,4.63
2017-11-01T17:08:08.103Z,4.83
2017-11-01T17:10:34.748Z,5.40
2017-11-01T17:13:01.394Z,5.03
2017-11-01T17:15:28.049Z,5.70
2017-11-01T17:17:54.671Z,4.50
2017-11-01T17:20:21.292Z,4.83
2017-11-01T17:22:47.920Z,5.00
2017-11-01T17:25:14.564Z,4.97
2017-11-01T17:27:41.227Z,6.03
2017-11-01T17:30:07.855Z,5.60
2017-11-01T17:32:34.515Z,5.13
2017-11-01T17:35:01.164Z,5.27
2017-11-01T17:37:27.817Z,4.53
2017-11-01T17:39:54.434Z,4.00
2017-11-01T17:42:21.064Z,4.10
2017-11-01T17:44:47.687Z,5.43
2017-11-01T17:47:14.319Z,3.60
2017-11-01T17:49:40.940Z,5.03
2017-11-01T17:52:07.547Z,6.07
2017-11-01T17:54:34.206Z,5.60
2017-11-01T17:57:00.872Z,5.90
2017-11-01T17:59:27.488Z,4.90
2017-11-01T18:01:54.127Z,5.40
2017-11-01T18:04:20.751Z,6.00
2017-11-01T18:06:47.403Z,6.80
2017-11-01T18:09:14.044Z,5.60
2017-11-01T18:11:40.709Z,6.00
2017-11-01T18:14:07.348Z,5.57
2017-11-01T18:16:34.004Z,5.10
2017-11-01T18:19:00.657Z,5.90
2017-11-01T18:21:27.264Z,6.00
2017-11-01T18:23:53.909Z,6.77
2017-11-01T18:26:20.535Z,6.80
2017-11-01T18:28:47.236Z,7.00
2017-11-01T18:31:15.864Z,5.80
2017-11-01T18:33:42.507Z,6.00
2017-11-01T18:36:09.155Z,7.00
2017-11-01T18:38:35.790Z,7.47
2017-11-01T18:41:02.433Z,8.60
2017-11-01T18:43:29.054Z,6.90
2017-11-01T18:45:55.702Z,8.30
2017-11-01T18:48:23.518Z,7.73
2017-11-01T18:50:50.137Z,8.13
2017-11-01T18:53:16.805Z,8.23
2017-11-01T18:55:43.444Z,8.50
2017-11-01T18:58:10.084Z,10.43
2017-11-01T19:00:36.714Z,8.23
2017-11-01T19:03:03.368Z,8.00
2017-11-01T19:05:29.994Z,8.30
2017-11-01T19:07:56.630Z,7.50
2017-11-01T19:10:23.272Z,7.90
2017-11-01T19:12:49.902Z,7.90
2017-11-01T19:15:16.565Z,9.00
2017-11-01T19:17:43.204Z,9.73
2017-11-01T19:20:09.866Z,11.63
2017-11-01T19:22:36.509Z,10.63
2017-11-01T19:25:03.163Z,8.90
2017-11-01T19:27:29.786Z,7.40
2017-11-01T19:29:56.420Z,7.57
2017-11-01T19:32:23.086Z,8.07
2017-11-01T19:34:49.712Z,7.83
2017-11-01T19:37:16.367Z,9.07
2017-11-01T19:39:42.984Z,7.57
2017-11-01T19:42:09.656Z,7.67
2017-11-01T19:44:36.303Z,7.77
2017-11-01T19:47:02.954Z,7.50
2017-11-01T19:49:29.611Z,9.57
2017-11-01T19:51:56.241Z,7.67
2017-11-01T19:54:22.913Z,8.67
2017-11-01T19:56:49.529Z,9.20
2017-11-01T19:59:16.172Z,9.20
2017-11-01T20:01:42.837Z,10.50
2017-11-01T20:04:09.493Z,8.87
2017-11-01T20:06:36.118Z,9.70
2017-11-01T20:09:03.174Z,10.17
2017-11-01T20:11:29.812Z,9.87
2017-11-01T20:13:56.468Z,9.70
2017-11-01T20:16:23.130Z,8.80
2017-11-01T20:18:49.754Z,9.90
2017-11-01T20:21:16.410Z,9.23
2017-11-01T20:23:43.133Z,12.90
2017-11-01T20:26:09.767Z,12.20
2017-11-01T20:28:36.431Z,9.80
2017-11-01T20:31:03.095Z,9.87
2017-11-01T20:33:29.726Z,10.77
2017-11-01T20:35:56.369Z,9.30
2017-11-01T20:38:23.008Z,9.60
2017-11-01T20:40:49.641Z,8.93
2017-11-01T20:43:16.290Z,9.90
2017-11-01T20:45:42.907Z,8.90
2017-11-01T20:48:09.657Z,9.40
2017-11-01T20:50:36.289Z,8.57
2017-11-01T20:53:02.928Z,7.87
2017-11-01T20:55:29.543Z,8.10
2017-11-01T20:57:56.179Z,8.73
2017-11-01T21:00:22.799Z,7.50
2017-11-01T21:02:49.436Z,8.57
2017-11-01T21:05:16.056Z,9.20
2017-11-01T21:07:42.668Z,8.27
2017-11-01T21:10:09.331Z,7.67
2017-11-01T21:12:35.967Z,8.20
2017-11-01T21:15:02.597Z,8.20
2017-11-01T21:17:29.230Z,8.90
2017-11-01T21:19:55.870Z,8.20
2017-11-01T21:22:22.489Z,7.87
2017-11-01T21:24:49.127Z,8.83
2017-11-01T21:27:15.756Z,7.80
2017-11-01T21:29:42.425Z,7.43
2017-11-01T21:32:09.051Z,9.63
2017-11-01T21:34:35.713Z,8.70
2017-11-01T21:37:02.377Z,7.43
2017-11-01T21:39:29.008Z,8.57
2017-11-01T21:41:55.647Z,8.70
2017-11-01T21:44:22.271Z,7.90
2017-11-01T21:46:48.921Z,8.80
2017-11-01T21:49:15.535Z,9.20
2017-11-01T21:51:42.175Z,9.10
2017-11-01T21:54:08.862Z,10.00
2017-11-01T21:56:35.505Z,8.63
2017-11-01T21:59:02.199Z,7.97
2017-11-01T22:01:28.861Z,7.83
2017-11-01T22:03:55.627Z,7.33
2017-11-01T22:06:22.262Z,8.47
